sensor_id;sensor_type;location;lat;lon;timestamp;temperature;humidity
54190;DHT22;40340;53.208;6.582;2022-08-05T10:24:59;25.00;92.20
54190;DHT22;40340;53.208;6.582;2022-08-05T10:27:25;25.00;92.80
54190;DHT22;40340;53.208;6.582;2022-08-05T10:29:51;24.80;92.10
54190;DHT22;40340;53.208;6.582;2022-08-05T10:32:17;24.80;91.20
54190;DHT22;40340;53.208;6.582;2022-08-05T10:34:44;24.80;90.30
54190;DHT22;40340;53.208;6.582;2022-08-05T10:37:11;24.80;88.40
54190;DHT22;40340;53.208;6.582;2022-08-05T10:39:38;24.80;84.80
54190;DHT22;40340;53.208;6.582;2022-08-05T10:42:12;24.90;83.60
54190;DHT22;40340;53.208;6.582;2022-08-05T10:44:44;24.80;81.90
54190;DHT22;40340;53.208;6.582;2022-08-05T10:47:12;24.60;81.70
54190;DHT22;40340;53.208;6.582;2022-08-05T10:55:08;24.20;80.10
54190;DHT22;40340;53.208;6.582;2022-08-05T10:57:34;24.30;80.60
54190;DHT22;40340;53.208;6.582;2022-08-05T11:00:11;24.40;81.10
54190;DHT22;40340;53.208;6.582;2022-08-05T11:02:37;24.20;81.80
54190;DHT22;40340;53.208;6.582;2022-08-05T11:05:23;24.50;82.90
54190;DHT22;40340;53.208;6.582;2022-08-05T11:07:56;24.50;80.30
54190;DHT22;40340;53.208;6.582;2022-08-05T11:10:26;24.60;79.50
54190;DHT22;40340;53.208;6.582;2022-08-05T11:12:52;24.80;78.70
54190;DHT22;40340;53.208;6.582;2022-08-05T11:15:28;24.80;78.80
54190;DHT22;40340;53.208;6.582;2022-08-05T11:20:43;24.70;78.20
54190;DHT22;40340;53.208;6.582;2022-08-05T11:28:57;25.10;81.60
54190;DHT22;40340;53.208;6.582;2022-08-05T11:31:24;25.10;76.60
54190;DHT22;40340;53.208;6.582;2022-08-05T11:33:55;25.20;79.00
54190;DHT22;40340;53.208;6.582;2022-08-05T11:36:42;25.00;78.40
54190;DHT22;40340;53.208;6.582;2022-08-05T11:39:12;25.10;79.30
54190;DHT22;40340;53.208;6.582;2022-08-05T11:41:40;25.00;81.10
54190;DHT22;40340;53.208;6.582;2022-08-05T11:44:12;24.60;83.90
54190;DHT22;40340;53.208;6.582;2022-08-05T11:46:48;24.10;87.30
54190;DHT22;40340;53.208;6.582;2022-08-05T11:49:16;23.90;89.20
54190;DHT22;40340;53.208;6.582;2022-08-05T11:51:46;23.80;87.40
54190;DHT22;40340;53.208;6.582;2022-08-05T11:54:13;23.60;84.80
54190;DHT22;40340;53.208;6.582;2022-08-05T11:59:23;23.40;84.90
54190;DHT22;40340;53.208;6.582;2022-08-05T12:04:35;23.80;86.10
54190;DHT22;40340;53.208;6.582;2022-08-05T12:07:01;24.10;87.20
54190;DHT22;40340;53.208;6.582;2022-08-05T12:09:28;24.00;86.10
54190;DHT22;40340;53.208;6.582;2022-08-05T12:11:55;23.80;85.00
54190;DHT22;40340;53.208;6.582;2022-08-05T12:14:20;23.60;86.70
54190;DHT22;40340;53.208;6.582;2022-08-05T12:16:47;23.60;89.50
54190;DHT22;40340;53.208;6.582;2022-08-05T12:19:13;23.40;90.50
54190;DHT22;40340;53.208;6.582;2022-08-05T12:21:50;23.20;91.20
54190;DHT22;40340;53.208;6.582;2022-08-05T12:24:18;23.00;91.00
54190;DHT22;40340;53.208;6.582;2022-08-05T12:26:50;22.70;91.50
54190;DHT22;40340;53.208;6.582;2022-08-05T12:29:19;23.00;91.60
54190;DHT22;40340;53.208;6.582;2022-08-05T12:31:52;23.50;91.80
54190;DHT22;40340;53.208;6.582;2022-08-05T12:34:37;23.70;90.70
54190;DHT22;40340;53.208;6.582;2022-08-05T12:37:09;24.00;90.90
54190;DHT22;40340;53.208;6.582;2022-08-05T12:39:38;24.10;89.20
54190;DHT22;40340;53.208;6.582;2022-08-05T12:42:09;23.90;89.00
54190;DHT22;40340;53.208;6.582;2022-08-05T12:44:35;23.40;89.10
54190;DHT22;40340;53.208;6.582;2022-08-05T12:47:01;23.40;90.30
54190;DHT22;40340;53.208;6.582;2022-08-05T12:49:37;23.90;90.60
54190;DHT22;40340;53.208;6.582;2022-08-05T12:52:03;24.10;90.40
54190;DHT22;40340;53.208;6.582;2022-08-05T12:54:30;24.20;90.00
54190;DHT22;40340;53.208;6.582;2022-08-05T12:56:59;24.20;90.30
54190;DHT22;40340;53.208;6.582;2022-08-05T12:59:26;24.10;89.80
54190;DHT22;40340;53.208;6.582;2022-08-05T13:04:37;24.10;90.20
54190;DHT22;40340;53.208;6.582;2022-08-05T13:07:12;24.10;89.60
54190;DHT22;40340;53.208;6.582;2022-08-05T13:09:39;24.00;89.00
54190;DHT22;40340;53.208;6.582;2022-08-05T13:14:40;23.70;83.70
54190;DHT22;40340;53.208;6.582;2022-08-05T13:17:21;23.50;82.00
54190;DHT22;40340;53.208;6.582;2022-08-05T13:20:05;23.50;81.80
54190;DHT22;40340;53.208;6.582;2022-08-05T13:22:36;23.60;87.70
54190;DHT22;40340;53.208;6.582;2022-08-05T13:25:05;23.60;89.30
54190;DHT22;40340;53.208;6.582;2022-08-05T13:27:36;23.50;90.20
54190;DHT22;40340;53.208;6.582;2022-08-05T13:30:04;23.30;90.20
54190;DHT22;40340;53.208;6.582;2022-08-05T13:32:31;23.00;90.70
54190;DHT22;40340;53.208;6.582;2022-08-05T13:34:57;22.90;90.50
54190;DHT22;40340;53.208;6.582;2022-08-05T13:37:23;22.70;90.30
54190;DHT22;40340;53.208;6.582;2022-08-05T13:39:52;22.60;90.60
54190;DHT22;40340;53.208;6.582;2022-08-05T13:42:22;22.60;91.30
54190;DHT22;40340;53.208;6.582;2022-08-05T13:44:55;22.90;90.70
54190;DHT22;40340;53.208;6.582;2022-08-05T13:47:22;23.30;90.80
54190;DHT22;40340;53.208;6.582;2022-08-05T13:49:49;23.70;89.90
54190;DHT22;40340;53.208;6.582;2022-08-05T13:52:18;24.20;89.20
54190;DHT22;40340;53.208;6.582;2022-08-05T13:54:44;24.20;88.40
54190;DHT22;40340;53.208;6.582;2022-08-05T13:57:11;24.10;89.00
54190;DHT22;40340;53.208;6.582;2022-08-05T13:59:38;23.90;88.40
54190;DHT22;40340;53.208;6.582;2022-08-05T14:02:06;23.50;84.80
54190;DHT22;40340;53.208;6.582;2022-08-05T14:04:37;23.20;82.00
54190;DHT22;40340;53.208;6.582;2022-08-05T14:07:32;23.20;80.70
54190;DHT22;40340;53.208;6.582;2022-08-05T14:10:04;23.10;88.90
54190;DHT22;40340;53.208;6.582;2022-08-05T14:12:30;23.20;90.70
54190;DHT22;40340;53.208;6.582;2022-08-05T14:14:55;23.30;91.20
54190;DHT22;40340;53.208;6.582;2022-08-05T14:17:21;23.20;91.70
54190;DHT22;40340;53.208;6.582;2022-08-05T14:19:51;23.10;92.10
54190;DHT22;40340;53.208;6.582;2022-08-05T14:22:17;23.10;92.10
54190;DHT22;40340;53.208;6.582;2022-08-05T14:24:42;23.30;92.00
54190;DHT22;40340;53.208;6.582;2022-08-05T14:27:08;23.40;91.80
54190;DHT22;40340;53.208;6.582;2022-08-05T14:29:33;23.20;91.60
54190;DHT22;40340;53.208;6.582;2022-08-05T14:32:02;23.10;91.70
54190;DHT22;40340;53.208;6.582;2022-08-05T14:34:27;22.80;92.30
54190;DHT22;40340;53.208;6.582;2022-08-05T14:36:53;22.70;92.40
54190;DHT22;40340;53.208;6.582;2022-08-05T14:39:19;22.60;92.20
54190;DHT22;40340;53.208;6.582;2022-08-05T14:41:44;22.60;92.10
54190;DHT22;40340;53.208;6.582;2022-08-05T14:44:10;22.60;92.30
54190;DHT22;40340;53.208;6.582;2022-08-05T14:46:36;22.70;92.00
54190;DHT22;40340;53.208;6.582;2022-08-05T14:49:02;22.60;91.40
54190;DHT22;40340;53.208;6.582;2022-08-05T14:51:28;22.60;91.20
54190;DHT22;40340;53.208;6.582;2022-08-05T14:53:57;22.60;90.90
54190;DHT22;40340;53.208;6.582;2022-08-05T14:56:22;22.50;90.30
54190;DHT22;40340;53.208;6.582;2022-08-05T14:58:48;22.50;90.10
54190;DHT22;40340;53.208;6.582;2022-08-05T15:01:13;22.40;89.90
54190;DHT22;40340;53.208;6.582;2022-08-05T15:03:39;22.40;89.70
54190;DHT22;40340;53.208;6.582;2022-08-05T15:06:06;22.20;89.50
54190;DHT22;40340;53.208;6.582;2022-08-05T15:08:31;22.30;89.90
54190;DHT22;40340;53.208;6.582;2022-08-05T15:10:57;22.30;89.80
54190;DHT22;40340;53.208;6.582;2022-08-05T15:13:23;22.30;90.00
54190;DHT22;40340;53.208;6.582;2022-08-05T15:15:49;22.20;89.20
54190;DHT22;40340;53.208;6.582;2022-08-05T15:18:14;22.20;88.70
54190;DHT22;40340;53.208;6.582;2022-08-05T15:20:43;22.20;88.50
54190;DHT22;40340;53.208;6.582;2022-08-05T15:23:10;22.00;87.70
54190;DHT22;40340;53.208;6.582;2022-08-05T15:25:36;22.00;87.80
54190;DHT22;40340;53.208;6.582;2022-08-05T15:28:03;21.90;87.50
54190;DHT22;40340;53.208;6.582;2022-08-05T15:30:28;21.90;87.30
54190;DHT22;40340;53.208;6.582;2022-08-05T15:32:56;21.90;87.60
54190;DHT22;40340;53.208;6.582;2022-08-05T15:35:22;21.90;87.70
54190;DHT22;40340;53.208;6.582;2022-08-05T15:37:48;22.00;87.90
54190;DHT22;40340;53.208;6.582;2022-08-05T15:40:14;21.90;87.50
54190;DHT22;40340;53.208;6.582;2022-08-05T15:42:39;21.80;87.20
54190;DHT22;40340;53.208;6.582;2022-08-05T15:45:05;21.80;86.80
54190;DHT22;40340;53.208;6.582;2022-08-05T15:47:31;21.70;88.00
54190;DHT22;40340;53.208;6.582;2022-08-05T15:49:56;21.70;87.60
54190;DHT22;40340;53.208;6.582;2022-08-05T15:52:22;21.70;87.60
54190;DHT22;40340;53.208;6.582;2022-08-05T15:54:50;21.80;88.00
54190;DHT22;40340;53.208;6.582;2022-08-05T15:57:17;21.90;88.30
54190;DHT22;40340;53.208;6.582;2022-08-05T15:59:43;22.00;89.10
54190;DHT22;40340;53.208;6.582;2022-08-05T16:02:08;22.00;89.90
54190;DHT22;40340;53.208;6.582;2022-08-05T16:04:34;22.00;90.10
54190;DHT22;40340;53.208;6.582;2022-08-05T16:07:00;21.90;90.40
54190;DHT22;40340;53.208;6.582;2022-08-05T16:09:25;21.80;90.50
54190;DHT22;40340;53.208;6.582;2022-08-05T16:11:52;21.80;90.10
54190;DHT22;40340;53.208;6.582;2022-08-05T16:14:17;21.70;90.20
54190;DHT22;40340;53.208;6.582;2022-08-05T16:16:43;21.70;90.40
54190;DHT22;40340;53.208;6.582;2022-08-05T16:19:09;21.70;90.60
54190;DHT22;40340;53.208;6.582;2022-08-05T16:21:34;21.70;90.30
54190;DHT22;40340;53.208;6.582;2022-08-05T16:24:00;21.60;90.50
54190;DHT22;40340;53.208;6.582;2022-08-05T16:26:26;21.60;90.40
54190;DHT22;40340;53.208;6.582;2022-08-05T16:28:51;21.60;90.70
54190;DHT22;40340;53.208;6.582;2022-08-05T16:31:17;21.60;90.70
54190;DHT22;40340;53.208;6.582;2022-08-05T16:33:43;21.70;90.50
54190;DHT22;40340;53.208;6.582;2022-08-05T16:36:10;21.60;90.70
54190;DHT22;40340;53.208;6.582;2022-08-05T16:38:36;21.50;88.90
54190;DHT22;40340;53.208;6.582;2022-08-05T16:41:02;21.40;88.20
54190;DHT22;40340;53.208;6.582;2022-08-05T16:43:33;21.20;88.20
54190;DHT22;40340;53.208;6.582;2022-08-05T16:46:00;21.20;88.20
54190;DHT22;40340;53.208;6.582;2022-08-05T16:48:26;21.00;88.00
54190;DHT22;40340;53.208;6.582;2022-08-05T16:50:54;21.10;88.70
54190;DHT22;40340;53.208;6.582;2022-08-05T16:53:22;21.20;87.90
54190;DHT22;40340;53.208;6.582;2022-08-05T16:55:48;21.10;87.60
54190;DHT22;40340;53.208;6.582;2022-08-05T16:58:14;20.90;88.10
54190;DHT22;40340;53.208;6.582;2022-08-05T17:00:39;20.80;87.90
54190;DHT22;40340;53.208;6.582;2022-08-05T17:03:05;20.70;87.80
54190;DHT22;40340;53.208;6.582;2022-08-05T17:05:31;20.90;88.60
54190;DHT22;40340;53.208;6.582;2022-08-05T17:07:56;21.00;89.00
54190;DHT22;40340;53.208;6.582;2022-08-05T17:10:22;21.30;89.30
54190;DHT22;40340;53.208;6.582;2022-08-05T17:12:51;21.30;89.20
54190;DHT22;40340;53.208;6.582;2022-08-05T17:15:18;21.40;87.80
54190;DHT22;40340;53.208;6.582;2022-08-05T17:17:44;21.20;87.70
54190;DHT22;40340;53.208;6.582;2022-08-05T17:20:10;21.20;88.20
54190;DHT22;40340;53.208;6.582;2022-08-05T17:22:38;21.30;87.70
54190;DHT22;40340;53.208;6.582;2022-08-05T17:25:04;21.40;87.90
54190;DHT22;40340;53.208;6.582;2022-08-05T17:27:30;21.20;88.00
54190;DHT22;40340;53.208;6.582;2022-08-05T17:29:56;21.00;88.40
54190;DHT22;40340;53.208;6.582;2022-08-05T17:32:22;20.90;88.70
54190;DHT22;40340;53.208;6.582;2022-08-05T17:34:47;20.70;89.00
54190;DHT22;40340;53.208;6.582;2022-08-05T17:37:17;20.60;89.30
54190;DHT22;40340;53.208;6.582;2022-08-05T17:39:44;20.50;89.50
54190;DHT22;40340;53.208;6.582;2022-08-05T17:42:10;20.50;89.90
54190;DHT22;40340;53.208;6.582;2022-08-05T17:44:35;20.40;90.00
54190;DHT22;40340;53.208;6.582;2022-08-05T17:47:01;20.30;90.20
54190;DHT22;40340;53.208;6.582;2022-08-05T17:49:27;20.20;90.40
54190;DHT22;40340;53.208;6.582;2022-08-05T17:51:52;20.20;90.50
54190;DHT22;40340;53.208;6.582;2022-08-05T17:54:18;20.10;90.20
54190;DHT22;40340;53.208;6.582;2022-08-05T17:56:43;20.00;90.20
54190;DHT22;40340;53.208;6.582;2022-08-05T17:59:09;19.90;90.60
54190;DHT22;40340;53.208;6.582;2022-08-05T18:01:35;19.80;91.00
54190;DHT22;40340;53.208;6.582;2022-08-05T18:04:03;19.70;91.30
54190;DHT22;40340;53.208;6.582;2022-08-05T18:06:29;19.60;91.70
54190;DHT22;40340;53.208;6.582;2022-08-05T18:08:55;19.60;91.80
54190;DHT22;40340;53.208;6.582;2022-08-05T18:11:21;19.60;91.90
54190;DHT22;40340;53.208;6.582;2022-08-05T18:13:46;19.60;91.90
54190;DHT22;40340;53.208;6.582;2022-08-05T18:16:12;19.50;92.10
54190;DHT22;40340;53.208;6.582;2022-08-05T18:18:38;19.50;92.20
54190;DHT22;40340;53.208;6.582;2022-08-05T18:21:04;19.30;92.30
54190;DHT22;40340;53.208;6.582;2022-08-05T18:23:30;19.30;92.50
54190;DHT22;40340;53.208;6.582;2022-08-05T18:25:56;19.30;92.60
54190;DHT22;40340;53.208;6.582;2022-08-05T18:28:22;19.20;92.60
54190;DHT22;40340;53.208;6.582;2022-08-05T18:30:48;19.10;92.60
54190;DHT22;40340;53.208;6.582;2022-08-05T18:33:14;19.10;92.60
54190;DHT22;40340;53.208;6.582;2022-08-05T18:35:40;19.10;92.70
54190;DHT22;40340;53.208;6.582;2022-08-05T18:38:07;19.10;92.90
54190;DHT22;40340;53.208;6.582;2022-08-05T18:40:33;19.10;92.70
54190;DHT22;40340;53.208;6.582;2022-08-05T18:43:01;18.90;92.80
54190;DHT22;40340;53.208;6.582;2022-08-05T18:45:28;19.00;92.90
54190;DHT22;40340;53.208;6.582;2022-08-05T18:47:56;18.90;92.80
54190;DHT22;40340;53.208;6.582;2022-08-05T18:50:22;18.90;92.80
54190;DHT22;40340;53.208;6.582;2022-08-05T18:53:06;18.80;93.00
54190;DHT22;40340;53.208;6.582;2022-08-05T18:55:31;18.70;93.20
54190;DHT22;40340;53.208;6.582;2022-08-05T18:57:57;18.70;93.30
54190;DHT22;40340;53.208;6.582;2022-08-05T19:00:25;18.60;93.50
54190;DHT22;40340;53.208;6.582;2022-08-05T19:02:51;18.60;93.60
54190;DHT22;40340;53.208;6.582;2022-08-05T19:05:17;18.60;93.70
54190;DHT22;40340;53.208;6.582;2022-08-05T19:07:44;18.50;93.90
54190;DHT22;40340;53.208;6.582;2022-08-05T19:10:12;18.60;94.30
54190;DHT22;40340;53.208;6.582;2022-08-05T19:12:38;18.60;94.50
54190;DHT22;40340;53.208;6.582;2022-08-05T19:15:04;18.50;94.70
54190;DHT22;40340;53.208;6.582;2022-08-05T19:17:29;18.50;94.80
54190;DHT22;40340;53.208;6.582;2022-08-05T19:19:55;18.40;95.10
54190;DHT22;40340;53.208;6.582;2022-08-05T19:22:21;18.30;95.30
54190;DHT22;40340;53.208;6.582;2022-08-05T19:24:46;18.40;95.40
54190;DHT22;40340;53.208;6.582;2022-08-05T19:27:12;18.40;95.50
54190;DHT22;40340;53.208;6.582;2022-08-05T19:29:38;18.30;95.60
54190;DHT22;40340;53.208;6.582;2022-08-05T19:32:05;18.20;95.80
54190;DHT22;40340;53.208;6.582;2022-08-05T19:34:31;18.20;95.90
54190;DHT22;40340;53.208;6.582;2022-08-05T19:36:57;18.20;96.00
54190;DHT22;40340;53.208;6.582;2022-08-05T19:39:23;18.20;96.10
54190;DHT22;40340;53.208;6.582;2022-08-05T19:41:48;18.10;96.30
54190;DHT22;40340;53.208;6.582;2022-08-05T19:44:17;18.00;96.40
54190;DHT22;40340;53.208;6.582;2022-08-05T19:46:42;17.90;96.60
54190;DHT22;40340;53.208;6.582;2022-08-05T19:49:08;17.90;96.80
54190;DHT22;40340;53.208;6.582;2022-08-05T19:51:34;17.90;96.90
54190;DHT22;40340;53.208;6.582;2022-08-05T19:54:03;17.90;97.10
54190;DHT22;40340;53.208;6.582;2022-08-05T19:56:35;17.90;97.30
54190;DHT22;40340;53.208;6.582;2022-08-05T19:59:03;17.90;97.50
54190;DHT22;40340;53.208;6.582;2022-08-05T20:01:31;18.10;97.90
54190;DHT22;40340;53.208;6.582;2022-08-05T20:03:58;17.80;98.00
54190;DHT22;40340;53.208;6.582;2022-08-05T20:06:26;17.80;98.30
54190;DHT22;40340;53.208;6.582;2022-08-05T20:08:52;17.70;98.50
54190;DHT22;40340;53.208;6.582;2022-08-05T20:11:19;17.60;98.90
54190;DHT22;40340;53.208;6.582;2022-08-05T20:13:45;17.60;99.30
54190;DHT22;40340;53.208;6.582;2022-08-05T20:16:11;17.60;99.60
54190;DHT22;40340;53.208;6.582;2022-08-05T20:18:37;17.50;99.70
54190;DHT22;40340;53.208;6.582;2022-08-05T20:21:04;17.50;99.90
54190;DHT22;40340;53.208;6.582;2022-08-05T20:23:31;17.50;99.90
54190;DHT22;40340;53.208;6.582;2022-08-05T20:25:58;17.50;99.90
54190;DHT22;40340;53.208;6.582;2022-08-05T20:28:24;17.50;99.90
54190;DHT22;40340;53.208;6.582;2022-08-05T20:30:49;17.40;99.90
54190;DHT22;40340;53.208;6.582;2022-08-05T20:33:15;17.30;99.90
54190;DHT22;40340;53.208;6.582;2022-08-05T20:35:40;17.30;99.90
54190;DHT22;40340;53.208;6.582;2022-08-05T20:38:06;17.20;99.90
54190;DHT22;40340;53.208;6.582;2022-08-05T20:40:34;17.20;99.90
54190;DHT22;40340;53.208;6.582;2022-08-05T20:43:00;17.10;99.90
54190;DHT22;40340;53.208;6.582;2022-08-05T20:45:28;17.20;99.90
54190;DHT22;40340;53.208;6.582;2022-08-05T20:47:54;17.10;99.90
54190;DHT22;40340;53.208;6.582;2022-08-05T20:50:21;17.00;99.90
54190;DHT22;40340;53.208;6.582;2022-08-05T20:52:47;17.00;99.90
54190;DHT22;40340;53.208;6.582;2022-08-05T20:55:13;17.00;99.90
54190;DHT22;40340;53.208;6.582;2022-08-05T20:57:39;16.90;99.90
54190;DHT22;40340;53.208;6.582;2022-08-05T21:00:06;16.80;99.90
54190;DHT22;40340;53.208;6.582;2022-08-05T21:02:33;16.80;99.90
54190;DHT22;40340;53.208;6.582;2022-08-05T21:04:59;16.80;99.90
54190;DHT22;40340;53.208;6.582;2022-08-05T21:07:30;16.70;99.90
54190;DHT22;40340;53.208;6.582;2022-08-05T21:09:56;16.70;99.90
54190;DHT22;40340;53.208;6.582;2022-08-05T21:12:26;16.70;99.90
54190;DHT22;40340;53.208;6.582;2022-08-05T21:14:52;16.60;99.90
54190;DHT22;40340;53.208;6.582;2022-08-05T21:17:18;16.60;99.90
54190;DHT22;40340;53.208;6.582;2022-08-05T21:19:43;16.60;99.90
54190;DHT22;40340;53.208;6.582;2022-08-05T21:22:09;16.60;99.90
54190;DHT22;40340;53.208;6.582;2022-08-05T21:24:34;16.50;99.90
54190;DHT22;40340;53.208;6.582;2022-08-05T21:27:03;16.50;99.90
54190;DHT22;40340;53.208;6.582;2022-08-05T21:29:28;16.40;99.90
54190;DHT22;40340;53.208;6.582;2022-08-05T21:31:54;16.40;99.90
54190;DHT22;40340;53.208;6.582;2022-08-05T21:34:20;16.40;99.90
54190;DHT22;40340;53.208;6.582;2022-08-05T21:36:45;16.40;99.90
54190;DHT22;40340;53.208;6.582;2022-08-05T21:39:11;16.30;99.90
54190;DHT22;40340;53.208;6.582;2022-08-05T21:41:37;16.30;99.90
54190;DHT22;40340;53.208;6.582;2022-08-05T21:44:03;16.30;99.90
54190;DHT22;40340;53.208;6.582;2022-08-05T21:46:29;16.30;99.90
54190;DHT22;40340;53.208;6.582;2022-08-05T21:48:55;16.20;99.90
54190;DHT22;40340;53.208;6.582;2022-08-05T21:51:20;16.20;99.90
54190;DHT22;40340;53.208;6.582;2022-08-05T21:53:46;16.20;99.90
54190;DHT22;40340;53.208;6.582;2022-08-05T21:56:12;16.20;99.90
54190;DHT22;40340;53.208;6.582;2022-08-05T21:58:37;16.20;99.90
54190;DHT22;40340;53.208;6.582;2022-08-05T22:01:03;16.10;99.90
54190;DHT22;40340;53.208;6.582;2022-08-05T22:03:30;16.10;99.90
54190;DHT22;40340;53.208;6.582;2022-08-05T22:05:56;16.10;99.90
54190;DHT22;40340;53.208;6.582;2022-08-05T22:08:21;16.10;99.90
54190;DHT22;40340;53.208;6.582;2022-08-05T22:10:47;16.10;99.90
54190;DHT22;40340;53.208;6.582;2022-08-05T22:13:13;16.10;99.90
54190;DHT22;40340;53.208;6.582;2022-08-05T22:15:39;16.10;99.90
54190;DHT22;40340;53.208;6.582;2022-08-05T22:18:05;16.00;99.90
54190;DHT22;40340;53.208;6.582;2022-08-05T22:20:31;16.00;99.90
54190;DHT22;40340;53.208;6.582;2022-08-05T22:22:57;16.00;99.90
54190;DHT22;40340;53.208;6.582;2022-08-05T22:25:41;16.00;99.90
54190;DHT22;40340;53.208;6.582;2022-08-05T22:28:25;15.90;99.90
54190;DHT22;40340;53.208;6.582;2022-08-05T22:30:51;15.90;99.90
54190;DHT22;40340;53.208;6.582;2022-08-05T22:33:17;15.80;99.90
54190;DHT22;40340;53.208;6.582;2022-08-05T22:35:43;15.80;99.90
54190;DHT22;40340;53.208;6.582;2022-08-05T22:38:08;15.70;99.90
54190;DHT22;40340;53.208;6.582;2022-08-05T22:40:34;15.70;99.90
54190;DHT22;40340;53.208;6.582;2022-08-05T22:43:00;15.70;99.90
54190;DHT22;40340;53.208;6.582;2022-08-05T22:45:25;15.60;99.90
54190;DHT22;40340;53.208;6.582;2022-08-05T22:47:55;15.60;99.90
54190;DHT22;40340;53.208;6.582;2022-08-05T22:50:21;15.60;99.90
54190;DHT22;40340;53.208;6.582;2022-08-05T22:52:48;15.60;99.90
54190;DHT22;40340;53.208;6.582;2022-08-05T22:55:14;15.50;99.90
54190;DHT22;40340;53.208;6.582;2022-08-05T22:57:40;15.50;99.90
54190;DHT22;40340;53.208;6.582;2022-08-05T23:00:06;15.50;99.90
54190;DHT22;40340;53.208;6.582;2022-08-05T23:02:32;15.50;99.90
54190;DHT22;40340;53.208;6.582;2022-08-05T23:04:58;15.50;99.90
54190;DHT22;40340;53.208;6.582;2022-08-05T23:07:24;15.40;99.90
54190;DHT22;40340;53.208;6.582;2022-08-05T23:09:50;15.40;99.90
54190;DHT22;40340;53.208;6.582;2022-08-05T23:12:16;15.40;99.90
54190;DHT22;40340;53.208;6.582;2022-08-05T23:14:42;15.40;99.90
54190;DHT22;40340;53.208;6.582;2022-08-05T23:17:08;15.40;99.90
54190;DHT22;40340;53.208;6.582;2022-08-05T23:19:54;15.30;99.90
54190;DHT22;40340;53.208;6.582;2022-08-05T23:22:21;15.30;99.90
54190;DHT22;40340;53.208;6.582;2022-08-05T23:24:47;15.30;99.90
54190;DHT22;40340;53.208;6.582;2022-08-05T23:27:13;15.20;99.90
54190;DHT22;40340;53.208;6.582;2022-08-05T23:29:39;15.20;99.90
54190;DHT22;40340;53.208;6.582;2022-08-05T23:32:05;15.20;99.90
54190;DHT22;40340;53.208;6.582;2022-08-05T23:34:31;15.20;99.90
54190;DHT22;40340;53.208;6.582;2022-08-05T23:36:57;15.20;99.90
54190;DHT22;40340;53.208;6.582;2022-08-05T23:39:22;15.20;99.90
54190;DHT22;40340;53.208;6.582;2022-08-05T23:41:48;15.10;99.90
54190;DHT22;40340;53.208;6.582;2022-08-05T23:44:14;15.00;99.90
54190;DHT22;40340;53.208;6.582;2022-08-05T23:46:41;15.00;99.90
54190;DHT22;40340;53.208;6.582;2022-08-05T23:49:06;15.00;99.90
54190;DHT22;40340;53.208;6.582;2022-08-05T23:51:34;15.00;99.90
54190;DHT22;40340;53.208;6.582;2022-08-05T23:54:19;14.90;99.90
54190;DHT22;40340;53.208;6.582;2022-08-05T23:56:45;14.80;99.90
54190;DHT22;40340;53.208;6.582;2022-08-05T23:59:10;14.80;99.90
